sensor_id;sensor_type;location;lat;lon;timestamp;temperature;humidity
62464;SHT31;48512;48.552;9.380;2024-03-07T00:01:18;6.55;97.40
62464;SHT31;48512;48.552;9.380;2024-03-07T00:03:46;6.54;97.30
62464;SHT31;48512;48.552;9.380;2024-03-07T00:06:12;6.54;97.32
62464;SHT31;48512;48.552;9.380;2024-03-07T00:08:38;6.53;97.34
62464;SHT31;48512;48.552;9.380;2024-03-07T00:11:04;6.47;96.96
62464;SHT31;48512;48.552;9.380;2024-03-07T00:13:33;6.47;96.33
62464;SHT31;48512;48.552;9.380;2024-03-07T00:15:59;6.38;95.84
62464;SHT31;48512;48.552;9.380;2024-03-07T00:18:25;6.37;95.68
62464;SHT31;48512;48.552;9.380;2024-03-07T00:20:52;6.38;95.59
62464;SHT31;48512;48.552;9.380;2024-03-07T00:23:18;6.27;95.85
62464;SHT31;48512;48.552;9.380;2024-03-07T00:25:44;6.23;95.94
62464;SHT31;48512;48.552;9.380;2024-03-07T00:28:10;6.23;95.81
62464;SHT31;48512;48.552;9.380;2024-03-07T00:30:37;6.14;95.93
62464;SHT31;48512;48.552;9.380;2024-03-07T00:33:03;6.14;95.88
62464;SHT31;48512;48.552;9.380;2024-03-07T00:35:30;6.16;95.63
62464;SHT31;48512;48.552;9.380;2024-03-07T00:37:56;6.13;95.70
62464;SHT31;48512;48.552;9.380;2024-03-07T00:40:23;6.09;95.54
62464;SHT31;48512;48.552;9.380;2024-03-07T00:42:49;6.07;95.43
62464;SHT31;48512;48.552;9.380;2024-03-07T00:45:16;6.03;95.32
62464;SHT31;48512;48.552;9.380;2024-03-07T00:47:43;6.02;94.70
62464;SHT31;48512;48.552;9.380;2024-03-07T00:50:09;5.98;94.88
62464;SHT31;48512;48.552;9.380;2024-03-07T00:52:36;5.98;94.64
62464;SHT31;48512;48.552;9.380;2024-03-07T00:55:03;5.96;94.39
62464;SHT31;48512;48.552;9.380;2024-03-07T00:57:29;5.99;94.42
62464;SHT31;48512;48.552;9.380;2024-03-07T00:59:55;5.95;94.53
62464;SHT31;48512;48.552;9.380;2024-03-07T01:02:22;5.93;94.46
62464;SHT31;48512;48.552;9.380;2024-03-07T01:04:48;5.92;94.65
62464;SHT31;48512;48.552;9.380;2024-03-07T01:07:14;5.89;94.71
62464;SHT31;48512;48.552;9.380;2024-03-07T01:09:40;5.89;94.88
62464;SHT31;48512;48.552;9.380;2024-03-07T01:12:06;5.89;94.86
62464;SHT31;48512;48.552;9.380;2024-03-07T01:14:33;5.86;94.85
62464;SHT31;48512;48.552;9.380;2024-03-07T01:16:59;5.82;94.92
62464;SHT31;48512;48.552;9.380;2024-03-07T01:19:25;5.76;95.05
62464;SHT31;48512;48.552;9.380;2024-03-07T01:21:51;5.75;95.02
62464;SHT31;48512;48.552;9.380;2024-03-07T01:24:17;5.69;95.03
62464;SHT31;48512;48.552;9.380;2024-03-07T01:26:46;5.68;94.66
62464;SHT31;48512;48.552;9.380;2024-03-07T01:29:12;5.64;94.86
62464;SHT31;48512;48.552;9.380;2024-03-07T01:31:39;5.61;94.90
62464;SHT31;48512;48.552;9.380;2024-03-07T01:34:05;5.55;94.99
62464;SHT31;48512;48.552;9.380;2024-03-07T01:36:31;5.54;94.77
62464;SHT31;48512;48.552;9.380;2024-03-07T01:38:57;5.50;94.72
62464;SHT31;48512;48.552;9.380;2024-03-07T01:41:24;5.48;94.76
62464;SHT31;48512;48.552;9.380;2024-03-07T01:43:50;5.43;94.76
62464;SHT31;48512;48.552;9.380;2024-03-07T01:46:16;5.36;94.70
62464;SHT31;48512;48.552;9.380;2024-03-07T01:48:43;5.34;94.67
62464;SHT31;48512;48.552;9.380;2024-03-07T01:51:09;5.33;94.46
62464;SHT31;48512;48.552;9.380;2024-03-07T01:53:35;5.30;94.22
62464;SHT31;48512;48.552;9.380;2024-03-07T01:56:02;5.24;94.13
62464;SHT31;48512;48.552;9.380;2024-03-07T01:58:30;5.19;94.08
62464;SHT31;48512;48.552;9.380;2024-03-07T02:00:59;5.15;94.05
62464;SHT31;48512;48.552;9.380;2024-03-07T02:03:25;5.16;94.01
62464;SHT31;48512;48.552;9.380;2024-03-07T02:05:52;5.13;94.06
62464;SHT31;48512;48.552;9.380;2024-03-07T02:08:18;5.12;94.00
62464;SHT31;48512;48.552;9.380;2024-03-07T02:10:45;5.07;93.85
62464;SHT31;48512;48.552;9.380;2024-03-07T02:13:12;5.06;93.83
62464;SHT31;48512;48.552;9.380;2024-03-07T02:15:38;5.07;93.73
62464;SHT31;48512;48.552;9.380;2024-03-07T02:18:04;5.01;93.58
62464;SHT31;48512;48.552;9.380;2024-03-07T02:20:31;5.01;93.65
62464;SHT31;48512;48.552;9.380;2024-03-07T02:22:57;5.01;93.52
62464;SHT31;48512;48.552;9.380;2024-03-07T02:25:23;4.99;93.68
62464;SHT31;48512;48.552;9.380;2024-03-07T02:27:49;4.97;93.68
62464;SHT31;48512;48.552;9.380;2024-03-07T02:30:15;4.93;93.94
62464;SHT31;48512;48.552;9.380;2024-03-07T02:32:46;4.96;93.85
62464;SHT31;48512;48.552;9.380;2024-03-07T02:35:18;4.95;93.89
62464;SHT31;48512;48.552;9.380;2024-03-07T02:37:44;4.96;93.87
62464;SHT31;48512;48.552;9.380;2024-03-07T02:40:12;4.96;93.93
62464;SHT31;48512;48.552;9.380;2024-03-07T02:42:38;4.92;93.76
62464;SHT31;48512;48.552;9.380;2024-03-07T02:45:04;4.90;93.81
62464;SHT31;48512;48.552;9.380;2024-03-07T02:47:31;4.90;94.00
62464;SHT31;48512;48.552;9.380;2024-03-07T02:49:57;4.86;94.02
62464;SHT31;48512;48.552;9.380;2024-03-07T02:52:23;4.85;93.83
62464;SHT31;48512;48.552;9.380;2024-03-07T02:54:49;4.79;93.87
62464;SHT31;48512;48.552;9.380;2024-03-07T02:57:15;4.79;93.93
62464;SHT31;48512;48.552;9.380;2024-03-07T02:59:41;4.78;93.98
62464;SHT31;48512;48.552;9.380;2024-03-07T03:02:07;4.82;93.92
62464;SHT31;48512;48.552;9.380;2024-03-07T03:04:34;4.83;93.90
62464;SHT31;48512;48.552;9.380;2024-03-07T03:07:00;4.89;93.80
62464;SHT31;48512;48.552;9.380;2024-03-07T03:09:26;4.89;93.71
62464;SHT31;48512;48.552;9.380;2024-03-07T03:11:53;4.89;93.47
62464;SHT31;48512;48.552;9.380;2024-03-07T03:14:19;4.88;93.50
62464;SHT31;48512;48.552;9.380;2024-03-07T03:16:47;4.89;93.45
62464;SHT31;48512;48.552;9.380;2024-03-07T03:19:13;4.88;93.49
62464;SHT31;48512;48.552;9.380;2024-03-07T03:21:39;4.85;93.57
62464;SHT31;48512;48.552;9.380;2024-03-07T03:24:05;4.83;93.49
62464;SHT31;48512;48.552;9.380;2024-03-07T03:26:33;4.86;93.53
62464;SHT31;48512;48.552;9.380;2024-03-07T03:28:59;4.79;93.47
62464;SHT31;48512;48.552;9.380;2024-03-07T03:31:25;4.79;93.48
62464;SHT31;48512;48.552;9.380;2024-03-07T03:33:51;4.76;93.55
62464;SHT31;48512;48.552;9.380;2024-03-07T03:36:18;4.72;93.47
62464;SHT31;48512;48.552;9.380;2024-03-07T03:38:44;4.69;93.19
62464;SHT31;48512;48.552;9.380;2024-03-07T03:41:17;4.65;93.14
62464;SHT31;48512;48.552;9.380;2024-03-07T03:43:44;4.65;93.01
62464;SHT31;48512;48.552;9.380;2024-03-07T03:46:10;4.57;93.10
62464;SHT31;48512;48.552;9.380;2024-03-07T03:48:40;4.55;93.22
62464;SHT31;48512;48.552;9.380;2024-03-07T03:51:07;4.55;93.27
62464;SHT31;48512;48.552;9.380;2024-03-07T03:53:34;4.48;93.36
62464;SHT31;48512;48.552;9.380;2024-03-07T03:56:01;4.50;93.55
62464;SHT31;48512;48.552;9.380;2024-03-07T03:58:27;4.48;93.42
62464;SHT31;48512;48.552;9.380;2024-03-07T04:00:53;4.47;93.36
62464;SHT31;48512;48.552;9.380;2024-03-07T04:03:19;4.42;93.21
62464;SHT31;48512;48.552;9.380;2024-03-07T04:05:46;4.40;93.22
62464;SHT31;48512;48.552;9.380;2024-03-07T04:08:12;4.41;93.03
62464;SHT31;48512;48.552;9.380;2024-03-07T04:10:39;4.38;92.90
62464;SHT31;48512;48.552;9.380;2024-03-07T04:13:05;4.37;92.98
62464;SHT31;48512;48.552;9.380;2024-03-07T04:15:31;4.31;93.09
62464;SHT31;48512;48.552;9.380;2024-03-07T04:17:58;4.33;93.20
62464;SHT31;48512;48.552;9.380;2024-03-07T04:20:24;4.25;93.08
62464;SHT31;48512;48.552;9.380;2024-03-07T04:22:50;4.27;93.02
62464;SHT31;48512;48.552;9.380;2024-03-07T04:25:17;4.30;92.99
62464;SHT31;48512;48.552;9.380;2024-03-07T04:27:43;4.27;93.05
62464;SHT31;48512;48.552;9.380;2024-03-07T04:30:10;4.27;92.90
62464;SHT31;48512;48.552;9.380;2024-03-07T04:32:39;4.25;92.95
62464;SHT31;48512;48.552;9.380;2024-03-07T04:35:08;4.25;93.13
62464;SHT31;48512;48.552;9.380;2024-03-07T04:37:36;4.23;93.09
62464;SHT31;48512;48.552;9.380;2024-03-07T04:40:07;4.23;93.02
62464;SHT31;48512;48.552;9.380;2024-03-07T04:42:47;4.21;93.18
62464;SHT31;48512;48.552;9.380;2024-03-07T04:45:15;4.27;93.21
62464;SHT31;48512;48.552;9.380;2024-03-07T04:47:43;4.24;93.25
62464;SHT31;48512;48.552;9.380;2024-03-07T04:50:10;4.25;93.30
62464;SHT31;48512;48.552;9.380;2024-03-07T04:52:39;4.25;93.12
62464;SHT31;48512;48.552;9.380;2024-03-07T04:55:06;4.27;93.04
62464;SHT31;48512;48.552;9.380;2024-03-07T04:57:38;4.29;93.23
62464;SHT31;48512;48.552;9.380;2024-03-07T05:02:33;4.27;93.24
62464;SHT31;48512;48.552;9.380;2024-03-07T05:04:59;4.27;93.16
62464;SHT31;48512;48.552;9.380;2024-03-07T05:07:25;4.23;93.17
62464;SHT31;48512;48.552;9.380;2024-03-07T05:09:52;4.20;93.18
62464;SHT31;48512;48.552;9.380;2024-03-07T05:12:18;4.18;93.24
62464;SHT31;48512;48.552;9.380;2024-03-07T05:14:44;4.14;93.25
62464;SHT31;48512;48.552;9.380;2024-03-07T05:17:10;4.20;93.29
62464;SHT31;48512;48.552;9.380;2024-03-07T05:19:36;4.16;93.22
62464;SHT31;48512;48.552;9.380;2024-03-07T05:22:03;4.14;93.34
62464;SHT31;48512;48.552;9.380;2024-03-07T05:24:32;4.10;93.25
62464;SHT31;48512;48.552;9.380;2024-03-07T05:26:59;4.09;93.48
62464;SHT31;48512;48.552;9.380;2024-03-07T05:29:26;4.11;93.72
62464;SHT31;48512;48.552;9.380;2024-03-07T05:31:52;4.10;93.85
62464;SHT31;48512;48.552;9.380;2024-03-07T05:34:18;4.04;93.97
62464;SHT31;48512;48.552;9.380;2024-03-07T05:36:45;4.11;94.00
62464;SHT31;48512;48.552;9.380;2024-03-07T05:39:13;4.09;93.99
62464;SHT31;48512;48.552;9.380;2024-03-07T05:41:41;4.03;93.37
62464;SHT31;48512;48.552;9.380;2024-03-07T05:44:08;4.06;93.04
62464;SHT31;48512;48.552;9.380;2024-03-07T05:46:39;4.04;93.12
62464;SHT31;48512;48.552;9.380;2024-03-07T05:49:13;4.04;93.39
62464;SHT31;48512;48.552;9.380;2024-03-07T05:51:39;4.04;93.43
62464;SHT31;48512;48.552;9.380;2024-03-07T05:54:07;4.04;93.42
62464;SHT31;48512;48.552;9.380;2024-03-07T05:56:35;4.06;93.40
62464;SHT31;48512;48.552;9.380;2024-03-07T05:59:04;4.04;93.29
62464;SHT31;48512;48.552;9.380;2024-03-07T06:01:33;4.07;93.33
62464;SHT31;48512;48.552;9.380;2024-03-07T06:04:01;4.09;93.18
62464;SHT31;48512;48.552;9.380;2024-03-07T06:06:28;4.10;93.15
62464;SHT31;48512;48.552;9.380;2024-03-07T06:08:57;4.07;93.06
62464;SHT31;48512;48.552;9.380;2024-03-07T06:11:23;4.11;92.99
62464;SHT31;48512;48.552;9.380;2024-03-07T06:13:50;5.00;99.84
62464;SHT31;48512;48.552;9.380;2024-03-07T06:16:16;5.20;99.12
62464;SHT31;48512;48.552;9.380;2024-03-07T06:18:44;4.93;93.49
62464;SHT31;48512;48.552;9.380;2024-03-07T06:21:12;4.78;91.80
62464;SHT31;48512;48.552;9.380;2024-03-07T06:23:39;4.60;90.94
62464;SHT31;48512;48.552;9.380;2024-03-07T06:26:05;4.47;91.38
62464;SHT31;48512;48.552;9.380;2024-03-07T06:28:38;4.40;91.51
62464;SHT31;48512;48.552;9.380;2024-03-07T06:31:05;4.30;91.68
62464;SHT31;48512;48.552;9.380;2024-03-07T06:33:33;4.25;91.76
62464;SHT31;48512;48.552;9.380;2024-03-07T06:36:00;4.21;92.01
62464;SHT31;48512;48.552;9.380;2024-03-07T06:38:29;4.18;91.99
62464;SHT31;48512;48.552;9.380;2024-03-07T06:40:55;4.17;92.09
62464;SHT31;48512;48.552;9.380;2024-03-07T06:43:21;4.16;92.00
62464;SHT31;48512;48.552;9.380;2024-03-07T06:45:47;4.16;92.09
62464;SHT31;48512;48.552;9.380;2024-03-07T06:48:13;4.14;92.27
62464;SHT31;48512;48.552;9.380;2024-03-07T06:50:40;4.13;92.36
62464;SHT31;48512;48.552;9.380;2024-03-07T06:53:06;4.10;92.30
62464;SHT31;48512;48.552;9.380;2024-03-07T06:55:33;4.06;92.36
62464;SHT31;48512;48.552;9.380;2024-03-07T06:58:03;4.02;92.29
62464;SHT31;48512;48.552;9.380;2024-03-07T07:00:30;4.02;92.41
62464;SHT31;48512;48.552;9.380;2024-03-07T07:02:59;4.03;92.31
62464;SHT31;48512;48.552;9.380;2024-03-07T07:05:25;4.07;92.40
62464;SHT31;48512;48.552;9.380;2024-03-07T07:07:51;4.07;92.36
62464;SHT31;48512;48.552;9.380;2024-03-07T07:10:17;4.06;92.43
62464;SHT31;48512;48.552;9.380;2024-03-07T07:12:47;4.03;92.60
62464;SHT31;48512;48.552;9.380;2024-03-07T07:15:18;4.03;92.69
62464;SHT31;48512;48.552;9.380;2024-03-07T07:17:44;4.06;92.70
62464;SHT31;48512;48.552;9.380;2024-03-07T07:20:16;4.14;92.59
62464;SHT31;48512;48.552;9.380;2024-03-07T07:22:44;4.16;92.50
62464;SHT31;48512;48.552;9.380;2024-03-07T07:25:10;4.16;92.65
62464;SHT31;48512;48.552;9.380;2024-03-07T07:27:41;4.16;92.83
62464;SHT31;48512;48.552;9.380;2024-03-07T07:30:11;4.17;92.90
62464;SHT31;48512;48.552;9.380;2024-03-07T07:32:37;4.24;92.92
62464;SHT31;48512;48.552;9.380;2024-03-07T07:35:05;4.25;92.88
62464;SHT31;48512;48.552;9.380;2024-03-07T07:40:08;4.30;92.64
62464;SHT31;48512;48.552;9.380;2024-03-07T07:42:38;4.24;92.69
62464;SHT31;48512;48.552;9.380;2024-03-07T07:45:06;4.14;92.72
62464;SHT31;48512;48.552;9.380;2024-03-07T07:47:32;4.18;92.74
62464;SHT31;48512;48.552;9.380;2024-03-07T07:49:58;4.17;92.49
62464;SHT31;48512;48.552;9.380;2024-03-07T07:52:25;4.23;92.56
62464;SHT31;48512;48.552;9.380;2024-03-07T07:54:51;4.24;92.61
62464;SHT31;48512;48.552;9.380;2024-03-07T07:57:17;4.31;92.63
62464;SHT31;48512;48.552;9.380;2024-03-07T07:59:43;4.30;92.61
62464;SHT31;48512;48.552;9.380;2024-03-07T08:02:09;4.34;92.59
62464;SHT31;48512;48.552;9.380;2024-03-07T08:04:36;4.42;92.56
62464;SHT31;48512;48.552;9.380;2024-03-07T08:07:02;4.47;92.43
62464;SHT31;48512;48.552;9.380;2024-03-07T08:09:30;4.50;92.22
62464;SHT31;48512;48.552;9.380;2024-03-07T08:11:56;4.54;92.01
62464;SHT31;48512;48.552;9.380;2024-03-07T08:14:23;4.52;92.01
62464;SHT31;48512;48.552;9.380;2024-03-07T08:16:49;4.54;91.84
62464;SHT31;48512;48.552;9.380;2024-03-07T08:19:17;4.51;91.82
62464;SHT31;48512;48.552;9.380;2024-03-07T08:21:43;4.52;91.78
62464;SHT31;48512;48.552;9.380;2024-03-07T08:24:09;4.57;91.82
62464;SHT31;48512;48.552;9.380;2024-03-07T08:26:36;4.58;91.59
62464;SHT31;48512;48.552;9.380;2024-03-07T08:29:03;4.67;91.35
62464;SHT31;48512;48.552;9.380;2024-03-07T08:31:29;4.67;91.47
62464;SHT31;48512;48.552;9.380;2024-03-07T08:33:55;4.71;91.78
62464;SHT31;48512;48.552;9.380;2024-03-07T08:36:21;4.76;91.83
62464;SHT31;48512;48.552;9.380;2024-03-07T08:38:48;4.76;91.96
62464;SHT31;48512;48.552;9.380;2024-03-07T08:41:14;4.76;91.88
62464;SHT31;48512;48.552;9.380;2024-03-07T08:43:40;4.83;91.78
62464;SHT31;48512;48.552;9.380;2024-03-07T08:46:07;4.88;91.15
62464;SHT31;48512;48.552;9.380;2024-03-07T08:48:34;4.90;90.76
62464;SHT31;48512;48.552;9.380;2024-03-07T08:51:01;4.92;89.73
62464;SHT31;48512;48.552;9.380;2024-03-07T08:53:27;4.80;88.22
62464;SHT31;48512;48.552;9.380;2024-03-07T08:55:53;4.72;88.73
62464;SHT31;48512;48.552;9.380;2024-03-07T08:58:19;4.75;89.33
62464;SHT31;48512;48.552;9.380;2024-03-07T09:00:46;4.72;89.30
62464;SHT31;48512;48.552;9.380;2024-03-07T09:03:12;4.73;89.39
62464;SHT31;48512;48.552;9.380;2024-03-07T09:05:38;4.75;89.05
62464;SHT31;48512;48.552;9.380;2024-03-07T09:08:04;4.78;89.12
62464;SHT31;48512;48.552;9.380;2024-03-07T09:10:34;4.80;88.99
62464;SHT31;48512;48.552;9.380;2024-03-07T09:13:00;4.86;88.36
62464;SHT31;48512;48.552;9.380;2024-03-07T09:15:26;4.83;88.09
62464;SHT31;48512;48.552;9.380;2024-03-07T09:17:53;4.88;88.03
62464;SHT31;48512;48.552;9.380;2024-03-07T09:20:20;4.89;88.07
62464;SHT31;48512;48.552;9.380;2024-03-07T09:22:46;4.86;88.72
62464;SHT31;48512;48.552;9.380;2024-03-07T09:25:17;4.90;88.71
62464;SHT31;48512;48.552;9.380;2024-03-07T09:27:44;4.90;88.30
62464;SHT31;48512;48.552;9.380;2024-03-07T09:30:11;4.93;87.80
62464;SHT31;48512;48.552;9.380;2024-03-07T09:32:50;5.01;88.08
62464;SHT31;48512;48.552;9.380;2024-03-07T09:35:17;5.06;88.20
62464;SHT31;48512;48.552;9.380;2024-03-07T09:37:43;5.15;87.67
62464;SHT31;48512;48.552;9.380;2024-03-07T09:40:11;5.15;87.35
62464;SHT31;48512;48.552;9.380;2024-03-07T09:42:45;5.13;87.78
62464;SHT31;48512;48.552;9.380;2024-03-07T09:45:17;5.16;87.30
62464;SHT31;48512;48.552;9.380;2024-03-07T09:47:48;5.15;86.63
62464;SHT31;48512;48.552;9.380;2024-03-07T09:50:16;5.19;86.57
62464;SHT31;48512;48.552;9.380;2024-03-07T09:52:46;5.31;86.82
62464;SHT31;48512;48.552;9.380;2024-03-07T09:55:13;5.36;87.05
62464;SHT31;48512;48.552;9.380;2024-03-07T09:57:39;5.44;86.94
62464;SHT31;48512;48.552;9.380;2024-03-07T10:00:08;5.51;86.59
62464;SHT31;48512;48.552;9.380;2024-03-07T10:02:39;5.47;85.85
62464;SHT31;48512;48.552;9.380;2024-03-07T10:05:09;5.47;86.41
62464;SHT31;48512;48.552;9.380;2024-03-07T10:07:36;5.52;86.43
62464;SHT31;48512;48.552;9.380;2024-03-07T10:10:02;5.61;86.29
62464;SHT31;48512;48.552;9.380;2024-03-07T10:12:35;5.71;86.10
62464;SHT31;48512;48.552;9.380;2024-03-07T10:15:04;5.68;85.02
62464;SHT31;48512;48.552;9.380;2024-03-07T10:17:39;5.64;84.72
62464;SHT31;48512;48.552;9.380;2024-03-07T10:20:07;5.61;84.94
62464;SHT31;48512;48.552;9.380;2024-03-07T10:22:42;5.64;85.22
62464;SHT31;48512;48.552;9.380;2024-03-07T10:25:08;5.55;85.12
62464;SHT31;48512;48.552;9.380;2024-03-07T10:27:37;5.54;85.85
62464;SHT31;48512;48.552;9.380;2024-03-07T10:30:04;5.64;85.83
62464;SHT31;48512;48.552;9.380;2024-03-07T10:32:33;5.65;83.92
62464;SHT31;48512;48.552;9.380;2024-03-07T10:34:59;5.62;84.25
62464;SHT31;48512;48.552;9.380;2024-03-07T10:37:25;5.64;83.81
62464;SHT31;48512;48.552;9.380;2024-03-07T10:39:52;5.69;84.30
62464;SHT31;48512;48.552;9.380;2024-03-07T10:42:19;5.66;83.63
62464;SHT31;48512;48.552;9.380;2024-03-07T10:44:48;5.68;84.06
62464;SHT31;48512;48.552;9.380;2024-03-07T10:47:15;6.01;82.76
62464;SHT31;48512;48.552;9.380;2024-03-07T10:49:53;6.53;82.80
62464;SHT31;48512;48.552;9.380;2024-03-07T10:52:29;6.71;80.44
62464;SHT31;48512;48.552;9.380;2024-03-07T10:55:12;6.91;80.25
62464;SHT31;48512;48.552;9.380;2024-03-07T10:58:01;7.05;81.26
62464;SHT31;48512;48.552;9.380;2024-03-07T11:00:29;7.12;79.68
62464;SHT31;48512;48.552;9.380;2024-03-07T11:03:02;7.48;78.67
62464;SHT31;48512;48.552;9.380;2024-03-07T11:05:33;7.58;80.07
62464;SHT31;48512;48.552;9.380;2024-03-07T11:08:01;7.92;79.05
62464;SHT31;48512;48.552;9.380;2024-03-07T11:10:38;8.43;78.17
62464;SHT31;48512;48.552;9.380;2024-03-07T11:13:09;8.47;78.44
62464;SHT31;48512;48.552;9.380;2024-03-07T11:15:39;8.34;78.53
62464;SHT31;48512;48.552;9.380;2024-03-07T11:18:06;8.28;78.22
62464;SHT31;48512;48.552;9.380;2024-03-07T11:20:35;8.17;77.90
62464;SHT31;48512;48.552;9.380;2024-03-07T11:23:31;8.12;77.70
62464;SHT31;48512;48.552;9.380;2024-03-07T11:26:15;8.03;78.38
62464;SHT31;48512;48.552;9.380;2024-03-07T11:28:42;8.09;78.43
62464;SHT31;48512;48.552;9.380;2024-03-07T11:34:14;8.19;78.73
62464;SHT31;48512;48.552;9.380;2024-03-07T11:36:44;8.25;78.25
62464;SHT31;48512;48.552;9.380;2024-03-07T11:39:45;8.23;78.04
62464;SHT31;48512;48.552;9.380;2024-03-07T11:44:52;8.01;79.68
62464;SHT31;48512;48.552;9.380;2024-03-07T11:47:23;8.01;79.53
62464;SHT31;48512;48.552;9.380;2024-03-07T11:49:51;8.07;79.31
62464;SHT31;48512;48.552;9.380;2024-03-07T11:52:21;8.02;79.37
62464;SHT31;48512;48.552;9.380;2024-03-07T11:54:47;7.98;80.02
62464;SHT31;48512;48.552;9.380;2024-03-07T11:57:15;8.02;80.07
62464;SHT31;48512;48.552;9.380;2024-03-07T11:59:42;8.02;79.61
62464;SHT31;48512;48.552;9.380;2024-03-07T12:02:14;7.96;79.84
62464;SHT31;48512;48.552;9.380;2024-03-07T12:04:41;7.89;79.55
62464;SHT31;48512;48.552;9.380;2024-03-07T12:07:08;7.84;80.68
62464;SHT31;48512;48.552;9.380;2024-03-07T12:09:37;7.94;80.71
62464;SHT31;48512;48.552;9.380;2024-03-07T12:12:08;7.96;81.17
62464;SHT31;48512;48.552;9.380;2024-03-07T12:14:35;8.09;79.77
62464;SHT31;48512;48.552;9.380;2024-03-07T12:17:01;8.09;79.69
62464;SHT31;48512;48.552;9.380;2024-03-07T12:19:33;8.07;79.64
62464;SHT31;48512;48.552;9.380;2024-03-07T12:22:02;8.10;80.47
62464;SHT31;48512;48.552;9.380;2024-03-07T12:24:29;8.21;80.06
62464;SHT31;48512;48.552;9.380;2024-03-07T12:27:12;8.34;80.02
62464;SHT31;48512;48.552;9.380;2024-03-07T12:29:40;8.42;78.32
62464;SHT31;48512;48.552;9.380;2024-03-07T12:32:09;8.44;78.90
62464;SHT31;48512;48.552;9.380;2024-03-07T12:34:40;8.59;78.65
62464;SHT31;48512;48.552;9.380;2024-03-07T12:37:12;8.57;78.40
62464;SHT31;48512;48.552;9.380;2024-03-07T12:39:43;8.61;78.60
62464;SHT31;48512;48.552;9.380;2024-03-07T12:42:15;8.54;78.06
62464;SHT31;48512;48.552;9.380;2024-03-07T12:44:43;8.52;75.79
62464;SHT31;48512;48.552;9.380;2024-03-07T12:47:16;8.54;75.44
62464;SHT31;48512;48.552;9.380;2024-03-07T12:49:43;8.54;75.13
62464;SHT31;48512;48.552;9.380;2024-03-07T12:52:10;8.53;75.50
62464;SHT31;48512;48.552;9.380;2024-03-07T12:54:36;8.60;75.86
62464;SHT31;48512;48.552;9.380;2024-03-07T12:57:09;8.36;75.20
62464;SHT31;48512;48.552;9.380;2024-03-07T12:59:37;8.29;75.17
62464;SHT31;48512;48.552;9.380;2024-03-07T13:02:05;8.23;75.31
62464;SHT31;48512;48.552;9.380;2024-03-07T13:04:35;8.23;76.08
62464;SHT31;48512;48.552;9.380;2024-03-07T13:07:07;8.17;75.93
62464;SHT31;48512;48.552;9.380;2024-03-07T13:09:33;8.21;75.73
62464;SHT31;48512;48.552;9.380;2024-03-07T13:12:00;8.09;74.84
62464;SHT31;48512;48.552;9.380;2024-03-07T13:14:27;8.05;74.91
62464;SHT31;48512;48.552;9.380;2024-03-07T13:16:59;8.10;75.55
62464;SHT31;48512;48.552;9.380;2024-03-07T13:19:29;8.03;75.68
62464;SHT31;48512;48.552;9.380;2024-03-07T13:21:56;7.96;75.98
62464;SHT31;48512;48.552;9.380;2024-03-07T13:24:23;7.96;76.25
62464;SHT31;48512;48.552;9.380;2024-03-07T13:26:50;7.98;75.51
62464;SHT31;48512;48.552;9.380;2024-03-07T13:29:17;8.06;75.26
62464;SHT31;48512;48.552;9.380;2024-03-07T13:31:44;8.12;75.70
62464;SHT31;48512;48.552;9.380;2024-03-07T13:34:11;8.10;74.86
62464;SHT31;48512;48.552;9.380;2024-03-07T13:36:43;7.96;75.18
62464;SHT31;48512;48.552;9.380;2024-03-07T13:39:10;7.95;75.86
62464;SHT31;48512;48.552;9.380;2024-03-07T13:41:38;8.03;75.10
62464;SHT31;48512;48.552;9.380;2024-03-07T13:44:05;8.07;73.52
62464;SHT31;48512;48.552;9.380;2024-03-07T13:46:31;8.19;73.95
62464;SHT31;48512;48.552;9.380;2024-03-07T13:49:00;8.34;74.77
62464;SHT31;48512;48.552;9.380;2024-03-07T13:51:34;8.49;73.06
62464;SHT31;48512;48.552;9.380;2024-03-07T13:54:02;8.52;72.64
62464;SHT31;48512;48.552;9.380;2024-03-07T14:02:34;8.63;72.13
62464;SHT31;48512;48.552;9.380;2024-03-07T14:05:31;8.52;73.28
62464;SHT31;48512;48.552;9.380;2024-03-07T14:11:07;8.40;72.20
62464;SHT31;48512;48.552;9.380;2024-03-07T14:16:47;8.44;72.77
62464;SHT31;48512;48.552;9.380;2024-03-07T14:23:01;8.52;72.66
62464;SHT31;48512;48.552;9.380;2024-03-07T14:25:46;8.54;72.21
62464;SHT31;48512;48.552;9.380;2024-03-07T14:31:07;8.65;71.36
62464;SHT31;48512;48.552;9.380;2024-03-07T14:36:40;8.39;71.24
62464;SHT31;48512;48.552;9.380;2024-03-07T14:39:07;8.47;71.62
62464;SHT31;48512;48.552;9.380;2024-03-07T14:44:11;8.36;71.44
62464;SHT31;48512;48.552;9.380;2024-03-07T14:46:37;8.36;71.46
62464;SHT31;48512;48.552;9.380;2024-03-07T14:49:03;8.40;72.33
62464;SHT31;48512;48.552;9.380;2024-03-07T14:51:30;8.36;72.14
62464;SHT31;48512;48.552;9.380;2024-03-07T14:53:56;8.37;72.56
62464;SHT31;48512;48.552;9.380;2024-03-07T14:56:23;8.17;73.75
62464;SHT31;48512;48.552;9.380;2024-03-07T14:58:49;8.06;73.36
62464;SHT31;48512;48.552;9.380;2024-03-07T15:01:15;8.06;72.90
62464;SHT31;48512;48.552;9.380;2024-03-07T15:03:42;8.03;72.76
62464;SHT31;48512;48.552;9.380;2024-03-07T15:06:11;7.82;71.78
62464;SHT31;48512;48.552;9.380;2024-03-07T15:08:40;7.77;72.13
62464;SHT31;48512;48.552;9.380;2024-03-07T15:13:39;7.75;72.50
62464;SHT31;48512;48.552;9.380;2024-03-07T15:16:05;7.75;72.20
62464;SHT31;48512;48.552;9.380;2024-03-07T15:18:33;7.67;71.51
62464;SHT31;48512;48.552;9.380;2024-03-07T15:20:59;7.74;71.95
62464;SHT31;48512;48.552;9.380;2024-03-07T15:23:26;7.64;72.28
62464;SHT31;48512;48.552;9.380;2024-03-07T15:25:52;7.57;72.75
62464;SHT31;48512;48.552;9.380;2024-03-07T15:28:18;7.50;73.42
62464;SHT31;48512;48.552;9.380;2024-03-07T15:30:44;7.51;73.19
62464;SHT31;48512;48.552;9.380;2024-03-07T15:33:11;7.42;72.63
62464;SHT31;48512;48.552;9.380;2024-03-07T15:35:37;7.37;72.93
62464;SHT31;48512;48.552;9.380;2024-03-07T15:38:03;7.40;73.13
62464;SHT31;48512;48.552;9.380;2024-03-07T15:40:31;7.44;73.05
62464;SHT31;48512;48.552;9.380;2024-03-07T15:42:57;7.43;72.40
62464;SHT31;48512;48.552;9.380;2024-03-07T15:45:24;7.40;72.28
62464;SHT31;48512;48.552;9.380;2024-03-07T15:47:58;7.42;73.43
62464;SHT31;48512;48.552;9.380;2024-03-07T15:50:25;7.39;74.02
62464;SHT31;48512;48.552;9.380;2024-03-07T15:52:56;7.43;73.95
62464;SHT31;48512;48.552;9.380;2024-03-07T15:55:24;7.42;73.92
62464;SHT31;48512;48.552;9.380;2024-03-07T15:57:52;7.42;73.96
62464;SHT31;48512;48.552;9.380;2024-03-07T16:00:23;7.48;73.92
62464;SHT31;48512;48.552;9.380;2024-03-07T16:05:18;7.61;73.87
62464;SHT31;48512;48.552;9.380;2024-03-07T16:07:44;7.67;73.86
62464;SHT31;48512;48.552;9.380;2024-03-07T16:10:12;7.77;74.09
62464;SHT31;48512;48.552;9.380;2024-03-07T16:12:39;7.79;73.11
62464;SHT31;48512;48.552;9.380;2024-03-07T16:15:07;7.73;72.95
62464;SHT31;48512;48.552;9.380;2024-03-07T16:17:36;7.73;72.98
62464;SHT31;48512;48.552;9.380;2024-03-07T16:20:03;7.63;73.35
62464;SHT31;48512;48.552;9.380;2024-03-07T16:22:31;7.66;72.42
62464;SHT31;48512;48.552;9.380;2024-03-07T16:24:57;7.61;72.51
62464;SHT31;48512;48.552;9.380;2024-03-07T16:27:23;7.61;72.60
62464;SHT31;48512;48.552;9.380;2024-03-07T16:29:49;7.58;72.92